sensor_id;sensor_type;location;lat;lon;timestamp;pressure;altitude;pressure_sealevel;temperature;humidity
929;BME280;451;47.988;7.842;2022-12-31T00:01:37;98491.13;;;16.58;83.74
929;BME280;451;47.988;7.842;2022-12-31T00:10:42;98499.13;;;16.64;82.67
929;BME280;451;47.988;7.842;2022-12-31T00:19:43;98494.78;;;16.76;81.25
929;BME280;451;47.988;7.842;2022-12-31T00:28:46;98479.34;;;16.40;80.95
929;BME280;451;47.988;7.842;2022-12-31T00:37:50;98530.53;;;16.80;81.43
929;BME280;451;47.988;7.842;2022-12-31T00:46:52;98446.91;;;16.25;81.21
929;BME280;451;47.988;7.842;2022-12-31T00:56:10;98541.56;;;16.84;81.14
929;BME280;451;47.988;7.842;2022-12-31T01:05:12;98537.88;;;16.91;80.68
929;BME280;451;47.988;7.842;2022-12-31T01:14:16;98540.91;;;16.95;80.66
929;BME280;451;47.988;7.842;2022-12-31T01:23:18;98461.59;;;16.21;81.88
929;BME280;451;47.988;7.842;2022-12-31T01:32:20;98561.34;;;16.94;81.64
929;BME280;451;47.988;7.842;2022-12-31T01:41:44;98596.28;;;16.98;81.98
929;BME280;451;47.988;7.842;2022-12-31T01:50:46;98608.13;;;16.82;83.58
929;BME280;451;47.988;7.842;2022-12-31T01:59:49;98617.56;;;16.72;86.80
929;BME280;451;47.988;7.842;2022-12-31T02:08:50;98510.38;;;15.94;89.65
929;BME280;451;47.988;7.842;2022-12-31T02:18:06;98568.09;;;15.92;90.94
929;BME280;451;47.988;7.842;2022-12-31T02:27:22;98519.28;;;15.53;94.23
929;BME280;451;47.988;7.842;2022-12-31T02:36:31;98618.50;;;16.18;96.24
929;BME280;451;47.988;7.842;2022-12-31T02:45:37;98608.50;;;16.07;98.15
929;BME280;451;47.988;7.842;2022-12-31T02:54:50;98495.09;;;15.09;96.35
929;BME280;451;47.988;7.842;2022-12-31T03:03:57;98590.16;;;16.12;96.05
929;BME280;451;47.988;7.842;2022-12-31T03:13:22;98595.44;;;16.12;95.33
929;BME280;451;47.988;7.842;2022-12-31T03:22:24;98639.75;;;16.05;95.52
929;BME280;451;47.988;7.842;2022-12-31T03:31:29;98580.34;;;16.06;94.28
929;BME280;451;47.988;7.842;2022-12-31T03:40:32;98574.22;;;15.86;93.43
929;BME280;451;47.988;7.842;2022-12-31T03:49:37;98600.41;;;16.48;86.78
929;BME280;451;47.988;7.842;2022-12-31T03:58:41;98591.00;;;16.59;86.20
929;BME280;451;47.988;7.842;2022-12-31T04:07:43;98601.41;;;16.27;87.59
929;BME280;451;47.988;7.842;2022-12-31T04:16:46;98608.94;;;16.57;84.37
929;BME280;451;47.988;7.842;2022-12-31T04:25:48;98585.91;;;16.64;83.54
929;BME280;451;47.988;7.842;2022-12-31T04:34:50;98594.25;;;16.80;82.43
929;BME280;451;47.988;7.842;2022-12-31T04:43:55;98565.66;;;16.49;82.80
929;BME280;451;47.988;7.842;2022-12-31T04:52:57;98512.22;;;16.00;84.64
929;BME280;451;47.988;7.842;2022-12-31T05:01:58;98618.38;;;16.66;84.73
929;BME280;451;47.988;7.842;2022-12-31T05:11:00;98606.91;;;16.26;86.19
929;BME280;451;47.988;7.842;2022-12-31T05:20:06;98593.44;;;16.34;85.93
929;BME280;451;47.988;7.842;2022-12-31T05:29:08;98397.59;;;15.58;82.55
929;BME280;451;47.988;7.842;2022-12-31T05:38:10;98618.56;;;16.71;80.77
929;BME280;451;47.988;7.842;2022-12-31T05:47:12;98641.22;;;16.93;79.89
929;BME280;451;47.988;7.842;2022-12-31T05:56:14;98628.19;;;16.72;81.50
929;BME280;451;47.988;7.842;2022-12-31T06:05:18;98512.50;;;15.44;85.14
929;BME280;451;47.988;7.842;2022-12-31T06:14:19;98612.34;;;15.85;86.58
929;BME280;451;47.988;7.842;2022-12-31T06:23:21;98578.25;;;15.75;87.00
929;BME280;451;47.988;7.842;2022-12-31T06:32:23;98619.56;;;16.24;84.18
929;BME280;451;47.988;7.842;2022-12-31T06:41:24;98562.78;;;15.79;83.42
929;BME280;451;47.988;7.842;2022-12-31T06:50:26;98588.13;;;16.27;79.16
929;BME280;451;47.988;7.842;2022-12-31T06:59:29;98660.03;;;16.91;76.66
929;BME280;451;47.988;7.842;2022-12-31T07:08:39;98646.94;;;16.90;76.86
929;BME280;451;47.988;7.842;2022-12-31T07:17:52;98656.72;;;17.22;73.98
929;BME280;451;47.988;7.842;2022-12-31T07:46:06;98672.47;;;17.88;68.69
929;BME280;451;47.988;7.842;2022-12-31T07:55:09;98662.84;;;17.87;68.54
929;BME280;451;47.988;7.842;2022-12-31T08:13:28;98660.97;;;18.32;65.55
929;BME280;451;47.988;7.842;2022-12-31T08:32:25;98700.66;;;18.72;64.12
929;BME280;451;47.988;7.842;2022-12-31T08:41:56;98685.22;;;18.80;62.28
929;BME280;451;47.988;7.842;2022-12-31T08:51:00;98628.66;;;18.53;61.56
929;BME280;451;47.988;7.842;2022-12-31T09:00:10;98531.16;;;17.78;60.75
929;BME280;451;47.988;7.842;2022-12-31T09:09:25;98544.75;;;18.20;60.29
929;BME280;451;47.988;7.842;2022-12-31T09:18:29;98684.09;;;19.13;60.55
929;BME280;451;47.988;7.842;2022-12-31T09:27:45;98600.19;;;18.79;59.22
929;BME280;451;47.988;7.842;2022-12-31T09:36:56;98675.75;;;19.52;58.47
929;BME280;451;47.988;7.842;2022-12-31T09:46:08;98688.63;;;19.73;57.39
929;BME280;451;47.988;7.842;2022-12-31T10:04:42;98690.38;;;19.98;55.76
929;BME280;451;47.988;7.842;2022-12-31T10:14:21;98674.63;;;20.08;55.41
929;BME280;451;47.988;7.842;2022-12-31T10:34:05;98672.84;;;20.62;54.84
929;BME280;451;47.988;7.842;2022-12-31T11:29:37;98616.28;;;20.88;53.97
929;BME280;451;47.988;7.842;2022-12-31T11:38:51;98594.66;;;21.13;53.09
929;BME280;451;47.988;7.842;2022-12-31T11:47:58;98580.38;;;21.19;52.64
929;BME280;451;47.988;7.842;2022-12-31T12:06:24;98476.69;;;20.34;57.00
929;BME280;451;47.988;7.842;2022-12-31T12:15:36;98563.56;;;20.83;56.02
929;BME280;451;47.988;7.842;2022-12-31T12:24:37;98521.38;;;20.62;57.68
929;BME280;451;47.988;7.842;2022-12-31T12:33:42;98537.97;;;20.29;59.38
929;BME280;451;47.988;7.842;2022-12-31T12:42:49;98500.19;;;19.91;60.47
929;BME280;451;47.988;7.842;2022-12-31T13:10:55;98531.41;;;20.02;62.92
929;BME280;451;47.988;7.842;2022-12-31T13:29:23;98515.03;;;19.39;63.78
929;BME280;451;47.988;7.842;2022-12-31T13:38:30;98480.22;;;19.04;64.57
929;BME280;451;47.988;7.842;2022-12-31T13:47:39;98514.44;;;19.85;62.83
929;BME280;451;47.988;7.842;2022-12-31T13:56:44;98449.47;;;19.49;61.99
929;BME280;451;47.988;7.842;2022-12-31T14:06:01;98459.53;;;19.65;61.24
929;BME280;451;47.988;7.842;2022-12-31T14:24:14;98633.50;;;19.49;64.35
929;BME280;451;47.988;7.842;2022-12-31T14:33:41;98583.88;;;19.48;66.01
929;BME280;451;47.988;7.842;2022-12-31T15:28:44;98600.63;;;17.44;77.92
929;BME280;451;47.988;7.842;2022-12-31T15:38:15;98623.22;;;17.15;79.79
929;BME280;451;47.988;7.842;2022-12-31T15:56:39;98615.53;;;16.74;84.17
929;BME280;451;47.988;7.842;2022-12-31T16:05:45;98628.38;;;16.70;85.72
929;BME280;451;47.988;7.842;2022-12-31T16:14:50;98522.56;;;15.55;87.43
929;BME280;451;47.988;7.842;2022-12-31T16:23:56;98470.19;;;14.97;87.84
929;BME280;451;47.988;7.842;2022-12-31T16:33:04;98624.97;;;15.83;90.15
929;BME280;451;47.988;7.842;2022-12-31T16:51:19;98648.41;;;15.72;92.21
929;BME280;451;47.988;7.842;2022-12-31T17:00:23;98652.88;;;15.72;91.74
929;BME280;451;47.988;7.842;2022-12-31T17:09:31;98618.44;;;15.38;92.67
929;BME280;451;47.988;7.842;2022-12-31T17:18:37;98650.22;;;15.31;95.05
929;BME280;451;47.988;7.842;2022-12-31T17:27:39;98637.94;;;15.17;95.17
929;BME280;451;47.988;7.842;2022-12-31T17:36:53;98569.47;;;14.79;95.54
929;BME280;451;47.988;7.842;2022-12-31T17:45:57;98634.59;;;15.08;94.62
929;BME280;451;47.988;7.842;2022-12-31T17:54:59;98696.91;;;15.04;93.37
929;BME280;451;47.988;7.842;2022-12-31T18:04:00;98657.47;;;15.16;93.62
929;BME280;451;47.988;7.842;2022-12-31T18:13:04;98651.78;;;14.63;96.98
929;BME280;451;47.988;7.842;2022-12-31T18:22:13;98448.63;;;13.11;98.22
929;BME280;451;47.988;7.842;2022-12-31T18:31:26;98502.13;;;13.77;97.98
929;BME280;451;47.988;7.842;2022-12-31T18:40:29;98661.59;;;14.69;98.35
929;BME280;451;47.988;7.842;2022-12-31T18:49:33;98685.19;;;14.64;100.00
929;BME280;451;47.988;7.842;2022-12-31T18:58:35;98695.13;;;14.83;97.36
929;BME280;451;47.988;7.842;2022-12-31T19:07:36;98718.03;;;14.98;95.30
929;BME280;451;47.988;7.842;2022-12-31T19:16:40;98642.47;;;14.67;94.51
929;BME280;451;47.988;7.842;2022-12-31T19:25:43;98772.41;;;14.72;97.82
929;BME280;451;47.988;7.842;2022-12-31T19:34:45;98428.50;;;12.74;99.47
929;BME280;451;47.988;7.842;2022-12-31T19:43:46;98645.78;;;14.12;100.00
929;BME280;451;47.988;7.842;2022-12-31T19:52:50;98694.50;;;14.39;100.00
929;BME280;451;47.988;7.842;2022-12-31T20:01:52;98742.38;;;13.93;100.00
929;BME280;451;47.988;7.842;2022-12-31T20:10:53;98511.00;;;12.68;100.00
929;BME280;451;47.988;7.842;2022-12-31T20:19:59;98663.97;;;13.50;100.00
929;BME280;451;47.988;7.842;2022-12-31T20:29:00;98740.75;;;13.92;100.00
929;BME280;451;47.988;7.842;2022-12-31T20:38:02;98721.59;;;14.05;100.00
929;BME280;451;47.988;7.842;2022-12-31T20:47:04;98707.44;;;13.18;100.00
929;BME280;451;47.988;7.842;2022-12-31T20:56:07;98720.53;;;14.21;98.35
929;BME280;451;47.988;7.842;2022-12-31T21:05:09;98699.28;;;13.93;96.91
929;BME280;451;47.988;7.842;2022-12-31T21:14:11;98664.38;;;13.47;96.43
929;BME280;451;47.988;7.842;2022-12-31T21:23:13;98604.94;;;13.72;88.37
929;BME280;451;47.988;7.842;2022-12-31T21:32:14;98578.34;;;14.65;77.91
929;BME280;451;47.988;7.842;2022-12-31T21:41:16;98757.19;;;15.58;79.29
929;BME280;451;47.988;7.842;2022-12-31T21:50:36;98803.16;;;15.71;79.59
929;BME280;451;47.988;7.842;2022-12-31T21:59:38;98821.63;;;15.58;80.88
929;BME280;451;47.988;7.842;2022-12-31T22:08:58;98808.44;;;15.44;80.14
929;BME280;451;47.988;7.842;2022-12-31T22:18:00;98727.25;;;14.80;77.91
929;BME280;451;47.988;7.842;2022-12-31T22:27:01;98827.09;;;15.85;76.64
929;BME280;451;47.988;7.842;2022-12-31T22:36:05;98844.28;;;15.95;74.99
929;BME280;451;47.988;7.842;2022-12-31T22:45:08;98848.78;;;15.95;75.43
929;BME280;451;47.988;7.842;2022-12-31T22:54:10;98870.78;;;15.89;75.20
929;BME280;451;47.988;7.842;2022-12-31T23:03:13;98886.41;;;16.05;74.33
929;BME280;451;47.988;7.842;2022-12-31T23:12:14;98895.72;;;16.01;74.85
929;BME280;451;47.988;7.842;2022-12-31T23:21:16;98896.50;;;15.95;75.12
929;BME280;451;47.988;7.842;2022-12-31T23:30:38;98888.31;;;15.90;76.01
929;BME280;451;47.988;7.842;2022-12-31T23:39:41;98893.97;;;15.80;76.12
929;BME280;451;47.988;7.842;2022-12-31T23:48:42;98735.47;;;14.85;76.39
929;BME280;451;47.988;7.842;2022-12-31T23:57:44;98890.66;;;15.71;76.67
